sensor_id;sensor_type;location;lat;lon;timestamp;P1;durP1;ratioP1;P2;durP2;ratioP2
68951;SDS011;56000;51.146;17.112;2023-03-23T00:00:35;27.60;;;13.70;;
68951;SDS011;56000;51.146;17.112;2023-03-23T00:03:17;29.10;;;14.50;;
68951;SDS011;56000;51.146;17.112;2023-03-23T00:05:50;26.10;;;13.30;;
68951;SDS011;56000;51.146;17.112;2023-03-23T00:08:28;28.10;;;14.20;;
68951;SDS011;56000;51.146;17.112;2023-03-23T00:11:01;31.10;;;15.50;;
68951;SDS011;56000;51.146;17.112;2023-03-23T00:13:33;27.00;;;14.30;;
68951;SDS011;56000;51.146;17.112;2023-03-23T00:16:06;28.40;;;15.00;;
68951;SDS011;56000;51.146;17.112;2023-03-23T00:18:46;28.80;;;15.20;;
68951;SDS011;56000;51.146;17.112;2023-03-23T00:21:21;28.70;;;16.20;;
68951;SDS011;56000;51.146;17.112;2023-03-23T00:24:06;27.50;;;14.90;;
68951;SDS011;56000;51.146;17.112;2023-03-23T00:26:41;28.50;;;15.90;;
68951;SDS011;56000;51.146;17.112;2023-03-23T00:29:16;29.90;;;16.30;;
68951;SDS011;56000;51.146;17.112;2023-03-23T00:31:53;31.40;;;15.50;;
68951;SDS011;56000;51.146;17.112;2023-03-23T00:34:25;32.50;;;16.90;;
68951;SDS011;56000;51.146;17.112;2023-03-23T00:37:01;37.70;;;15.40;;
68951;SDS011;56000;51.146;17.112;2023-03-23T00:39:33;28.50;;;15.90;;
68951;SDS011;56000;51.146;17.112;2023-03-23T00:42:07;30.20;;;16.00;;
68951;SDS011;56000;51.146;17.112;2023-03-23T00:44:40;36.50;;;18.10;;
68951;SDS011;56000;51.146;17.112;2023-03-23T00:47:12;33.20;;;17.90;;
68951;SDS011;56000;51.146;17.112;2023-03-23T00:49:46;34.60;;;16.10;;
68951;SDS011;56000;51.146;17.112;2023-03-23T00:52:20;27.60;;;15.50;;
68951;SDS011;56000;51.146;17.112;2023-03-23T00:54:53;31.10;;;16.30;;
68951;SDS011;56000;51.146;17.112;2023-03-23T00:57:27;31.50;;;16.20;;
68951;SDS011;56000;51.146;17.112;2023-03-23T00:59:59;33.20;;;16.80;;
68951;SDS011;56000;51.146;17.112;2023-03-23T01:02:38;31.30;;;17.10;;
68951;SDS011;56000;51.146;17.112;2023-03-23T01:05:13;30.00;;;16.60;;
68951;SDS011;56000;51.146;17.112;2023-03-23T01:07:47;33.20;;;16.30;;
68951;SDS011;56000;51.146;17.112;2023-03-23T01:10:19;35.70;;;16.10;;
68951;SDS011;56000;51.146;17.112;2023-03-23T01:12:51;33.60;;;16.20;;
68951;SDS011;56000;51.146;17.112;2023-03-23T01:15:24;32.90;;;16.90;;
68951;SDS011;56000;51.146;17.112;2023-03-23T01:17:57;29.70;;;16.90;;
68951;SDS011;56000;51.146;17.112;2023-03-23T01:20:29;31.60;;;15.80;;
68951;SDS011;56000;51.146;17.112;2023-03-23T01:23:02;28.00;;;15.60;;
68951;SDS011;56000;51.146;17.112;2023-03-23T01:25:36;32.40;;;15.90;;
68951;SDS011;56000;51.146;17.112;2023-03-23T01:28:08;29.70;;;16.30;;
68951;SDS011;56000;51.146;17.112;2023-03-23T01:30:40;32.00;;;16.40;;
68951;SDS011;56000;51.146;17.112;2023-03-23T01:33:12;31.20;;;16.20;;
68951;SDS011;56000;51.146;17.112;2023-03-23T01:35:45;30.60;;;16.40;;
68951;SDS011;56000;51.146;17.112;2023-03-23T01:38:17;33.30;;;15.30;;
68951;SDS011;56000;51.146;17.112;2023-03-23T01:40:50;29.10;;;15.30;;
68951;SDS011;56000;51.146;17.112;2023-03-23T01:43:21;30.00;;;15.40;;
68951;SDS011;56000;51.146;17.112;2023-03-23T01:45:54;30.80;;;16.10;;
68951;SDS011;56000;51.146;17.112;2023-03-23T01:48:27;34.30;;;15.80;;
68951;SDS011;56000;51.146;17.112;2023-03-23T01:51:01;27.50;;;14.20;;
68951;SDS011;56000;51.146;17.112;2023-03-23T01:53:38;30.40;;;14.60;;
68951;SDS011;56000;51.146;17.112;2023-03-23T01:56:15;28.20;;;14.40;;
68951;SDS011;56000;51.146;17.112;2023-03-23T01:58:54;28.80;;;14.30;;
68951;SDS011;56000;51.146;17.112;2023-03-23T02:01:27;30.20;;;14.00;;
68951;SDS011;56000;51.146;17.112;2023-03-23T02:03:59;28.00;;;13.30;;
68951;SDS011;56000;51.146;17.112;2023-03-23T02:06:31;23.50;;;13.60;;
68951;SDS011;56000;51.146;17.112;2023-03-23T02:09:09;26.90;;;13.30;;
68951;SDS011;56000;51.146;17.112;2023-03-23T02:11:46;21.60;;;11.80;;
68951;SDS011;56000;51.146;17.112;2023-03-23T02:14:20;25.30;;;11.90;;
68951;SDS011;56000;51.146;17.112;2023-03-23T02:16:55;25.60;;;12.90;;
68951;SDS011;56000;51.146;17.112;2023-03-23T02:19:46;24.20;;;12.10;;
68951;SDS011;56000;51.146;17.112;2023-03-23T02:22:50;21.60;;;11.40;;
68951;SDS011;56000;51.146;17.112;2023-03-23T02:25:59;24.90;;;11.90;;
68951;SDS011;56000;51.146;17.112;2023-03-23T02:28:48;18.90;;;10.80;;
68951;SDS011;56000;51.146;17.112;2023-03-23T02:31:59;23.80;;;12.00;;
68951;SDS011;56000;51.146;17.112;2023-03-23T02:34:40;20.90;;;11.70;;
68951;SDS011;56000;51.146;17.112;2023-03-23T02:37:19;18.90;;;11.10;;
68951;SDS011;56000;51.146;17.112;2023-03-23T02:39:56;19.90;;;10.20;;
68951;SDS011;56000;51.146;17.112;2023-03-23T02:42:36;18.60;;;10.30;;
68951;SDS011;56000;51.146;17.112;2023-03-23T02:45:11;21.30;;;10.60;;
68951;SDS011;56000;51.146;17.112;2023-03-23T02:47:44;21.70;;;10.60;;
68951;SDS011;56000;51.146;17.112;2023-03-23T02:50:19;16.30;;;9.90;;
68951;SDS011;56000;51.146;17.112;2023-03-23T02:52:53;17.40;;;9.50;;
68951;SDS011;56000;51.146;17.112;2023-03-23T02:55:29;22.70;;;10.80;;
68951;SDS011;56000;51.146;17.112;2023-03-23T02:58:04;19.00;;;10.30;;
68951;SDS011;56000;51.146;17.112;2023-03-23T03:00:38;21.20;;;11.60;;
68951;SDS011;56000;51.146;17.112;2023-03-23T03:03:12;18.90;;;10.40;;
68951;SDS011;56000;51.146;17.112;2023-03-23T03:05:51;20.10;;;10.00;;
68951;SDS011;56000;51.146;17.112;2023-03-23T03:08:38;23.20;;;10.20;;
68951;SDS011;56000;51.146;17.112;2023-03-23T03:11:18;17.00;;;9.80;;
68951;SDS011;56000;51.146;17.112;2023-03-23T03:13:55;17.10;;;10.00;;
68951;SDS011;56000;51.146;17.112;2023-03-23T03:16:35;17.50;;;9.60;;
68951;SDS011;56000;51.146;17.112;2023-03-23T03:19:12;17.40;;;10.10;;
68951;SDS011;56000;51.146;17.112;2023-03-23T03:21:48;22.60;;;9.60;;
68951;SDS011;56000;51.146;17.112;2023-03-23T03:24:27;16.50;;;8.30;;
68951;SDS011;56000;51.146;17.112;2023-03-23T03:27:01;17.10;;;8.80;;
68951;SDS011;56000;51.146;17.112;2023-03-23T03:29:42;18.80;;;10.00;;
68951;SDS011;56000;51.146;17.112;2023-03-23T03:32:19;20.00;;;9.00;;
68951;SDS011;56000;51.146;17.112;2023-03-23T03:34:55;16.20;;;9.40;;
68951;SDS011;56000;51.146;17.112;2023-03-23T03:37:33;20.40;;;8.30;;
68951;SDS011;56000;51.146;17.112;2023-03-23T03:40:11;16.60;;;7.90;;
68951;SDS011;56000;51.146;17.112;2023-03-23T03:42:45;15.00;;;8.80;;
68951;SDS011;56000;51.146;17.112;2023-03-23T03:45:18;14.00;;;7.50;;
68951;SDS011;56000;51.146;17.112;2023-03-23T03:47:52;12.70;;;7.20;;
68951;SDS011;56000;51.146;17.112;2023-03-23T03:50:24;15.10;;;7.70;;
68951;SDS011;56000;51.146;17.112;2023-03-23T03:52:56;13.00;;;7.10;;
68951;SDS011;56000;51.146;17.112;2023-03-23T03:55:28;15.40;;;6.60;;
68951;SDS011;56000;51.146;17.112;2023-03-23T03:58:04;13.70;;;6.60;;
68951;SDS011;56000;51.146;17.112;2023-03-23T04:00:57;12.50;;;6.60;;
68951;SDS011;56000;51.146;17.112;2023-03-23T04:03:33;12.20;;;6.70;;
68951;SDS011;56000;51.146;17.112;2023-03-23T04:06:25;17.00;;;7.50;;
68951;SDS011;56000;51.146;17.112;2023-03-23T04:08:58;13.20;;;5.90;;
68951;SDS011;56000;51.146;17.112;2023-03-23T04:11:34;9.40;;;6.00;;
68951;SDS011;56000;51.146;17.112;2023-03-23T04:14:26;10.40;;;6.20;;
68951;SDS011;56000;51.146;17.112;2023-03-23T04:16:58;12.20;;;5.80;;
68951;SDS011;56000;51.146;17.112;2023-03-23T04:19:30;11.30;;;6.00;;
68951;SDS011;56000;51.146;17.112;2023-03-23T04:22:03;12.30;;;6.00;;
68951;SDS011;56000;51.146;17.112;2023-03-23T04:24:37;13.20;;;5.70;;
68951;SDS011;56000;51.146;17.112;2023-03-23T04:27:11;11.10;;;5.20;;
68951;SDS011;56000;51.146;17.112;2023-03-23T04:29:44;12.00;;;5.20;;
68951;SDS011;56000;51.146;17.112;2023-03-23T04:32:36;10.10;;;5.40;;
68951;SDS011;56000;51.146;17.112;2023-03-23T04:35:13;10.60;;;5.40;;
68951;SDS011;56000;51.146;17.112;2023-03-23T04:37:49;11.90;;;4.90;;
68951;SDS011;56000;51.146;17.112;2023-03-23T04:40:22;9.30;;;5.40;;
68951;SDS011;56000;51.146;17.112;2023-03-23T04:43:04;15.50;;;5.50;;
68951;SDS011;56000;51.146;17.112;2023-03-23T04:45:53;10.40;;;5.50;;
68951;SDS011;56000;51.146;17.112;2023-03-23T04:48:27;10.70;;;4.80;;
68951;SDS011;56000;51.146;17.112;2023-03-23T04:51:20;11.00;;;4.80;;
68951;SDS011;56000;51.146;17.112;2023-03-23T04:53:53;10.20;;;4.60;;
68951;SDS011;56000;51.146;17.112;2023-03-23T04:56:26;8.70;;;4.80;;
68951;SDS011;56000;51.146;17.112;2023-03-23T04:58:58;9.40;;;4.90;;
68951;SDS011;56000;51.146;17.112;2023-03-23T05:01:36;8.10;;;4.70;;
68951;SDS011;56000;51.146;17.112;2023-03-23T05:04:17;10.30;;;5.30;;
68951;SDS011;56000;51.146;17.112;2023-03-23T05:07:26;11.10;;;5.20;;
68951;SDS011;56000;51.146;17.112;2023-03-23T05:09:59;8.90;;;4.60;;
68951;SDS011;56000;51.146;17.112;2023-03-23T05:12:32;9.20;;;4.40;;
68951;SDS011;56000;51.146;17.112;2023-03-23T05:15:08;7.00;;;4.00;;
68951;SDS011;56000;51.146;17.112;2023-03-23T05:17:42;8.50;;;4.30;;
68951;SDS011;56000;51.146;17.112;2023-03-23T05:20:18;7.70;;;3.90;;
68951;SDS011;56000;51.146;17.112;2023-03-23T05:22:53;8.10;;;4.20;;
68951;SDS011;56000;51.146;17.112;2023-03-23T05:25:30;9.80;;;4.30;;
68951;SDS011;56000;51.146;17.112;2023-03-23T05:28:09;7.20;;;4.10;;
68951;SDS011;56000;51.146;17.112;2023-03-23T05:31:01;9.90;;;4.50;;
68951;SDS011;56000;51.146;17.112;2023-03-23T05:33:34;5.60;;;3.80;;
68951;SDS011;56000;51.146;17.112;2023-03-23T05:36:17;7.50;;;4.10;;
68951;SDS011;56000;51.146;17.112;2023-03-23T05:39:13;13.10;;;4.80;;
68951;SDS011;56000;51.146;17.112;2023-03-23T05:42:18;6.30;;;3.50;;
68951;SDS011;56000;51.146;17.112;2023-03-23T05:45:01;7.00;;;3.90;;
68951;SDS011;56000;51.146;17.112;2023-03-23T05:47:34;9.70;;;4.40;;
68951;SDS011;56000;51.146;17.112;2023-03-23T05:50:10;5.50;;;3.50;;
68951;SDS011;56000;51.146;17.112;2023-03-23T05:52:43;9.30;;;4.10;;
68951;SDS011;56000;51.146;17.112;2023-03-23T05:55:16;6.50;;;4.20;;
68951;SDS011;56000;51.146;17.112;2023-03-23T05:57:54;9.00;;;3.90;;
68951;SDS011;56000;51.146;17.112;2023-03-23T06:00:33;6.60;;;3.40;;
68951;SDS011;56000;51.146;17.112;2023-03-23T06:03:12;9.50;;;3.70;;
68951;SDS011;56000;51.146;17.112;2023-03-23T06:06:08;7.00;;;4.20;;
68951;SDS011;56000;51.146;17.112;2023-03-23T06:08:52;7.10;;;3.50;;
68951;SDS011;56000;51.146;17.112;2023-03-23T06:11:33;7.30;;;3.80;;
68951;SDS011;56000;51.146;17.112;2023-03-23T06:14:35;7.50;;;3.50;;
68951;SDS011;56000;51.146;17.112;2023-03-23T06:17:07;7.00;;;4.10;;
68951;SDS011;56000;51.146;17.112;2023-03-23T06:19:40;9.00;;;3.60;;
68951;SDS011;56000;51.146;17.112;2023-03-23T06:22:15;5.20;;;3.20;;
68951;SDS011;56000;51.146;17.112;2023-03-23T06:25:13;7.80;;;4.10;;
68951;SDS011;56000;51.146;17.112;2023-03-23T06:27:46;7.70;;;4.20;;
68951;SDS011;56000;51.146;17.112;2023-03-23T06:30:21;10.70;;;3.80;;
68951;SDS011;56000;51.146;17.112;2023-03-23T06:32:53;13.20;;;4.50;;
68951;SDS011;56000;51.146;17.112;2023-03-23T06:35:45;14.60;;;4.00;;
68951;SDS011;56000;51.146;17.112;2023-03-23T06:38:29;8.40;;;3.70;;
68951;SDS011;56000;51.146;17.112;2023-03-23T06:41:01;7.80;;;3.90;;
68951;SDS011;56000;51.146;17.112;2023-03-23T06:43:33;7.40;;;3.40;;
68951;SDS011;56000;51.146;17.112;2023-03-23T06:46:16;6.40;;;3.80;;
68951;SDS011;56000;51.146;17.112;2023-03-23T06:48:56;7.20;;;3.80;;
68951;SDS011;56000;51.146;17.112;2023-03-23T06:51:36;7.40;;;3.30;;
68951;SDS011;56000;51.146;17.112;2023-03-23T06:54:08;14.00;;;4.20;;
68951;SDS011;56000;51.146;17.112;2023-03-23T06:56:41;12.40;;;3.90;;
68951;SDS011;56000;51.146;17.112;2023-03-23T06:59:13;7.70;;;3.90;;
68951;SDS011;56000;51.146;17.112;2023-03-23T07:01:45;9.60;;;4.00;;
68951;SDS011;56000;51.146;17.112;2023-03-23T07:04:17;5.90;;;3.30;;
68951;SDS011;56000;51.146;17.112;2023-03-23T07:07:11;15.20;;;4.90;;
68951;SDS011;56000;51.146;17.112;2023-03-23T07:10:10;9.50;;;3.90;;
68951;SDS011;56000;51.146;17.112;2023-03-23T07:12:42;9.50;;;4.10;;
68951;SDS011;56000;51.146;17.112;2023-03-23T07:15:15;7.70;;;3.10;;
68951;SDS011;56000;51.146;17.112;2023-03-23T07:17:49;6.70;;;3.70;;
68951;SDS011;56000;51.146;17.112;2023-03-23T07:20:41;11.10;;;3.80;;
68951;SDS011;56000;51.146;17.112;2023-03-23T07:23:17;8.70;;;3.30;;
68951;SDS011;56000;51.146;17.112;2023-03-23T07:26:08;14.90;;;3.80;;
68951;SDS011;56000;51.146;17.112;2023-03-23T07:28:43;6.30;;;3.70;;
68951;SDS011;56000;51.146;17.112;2023-03-23T07:31:25;7.00;;;3.60;;
68951;SDS011;56000;51.146;17.112;2023-03-23T07:33:58;5.90;;;3.60;;
68951;SDS011;56000;51.146;17.112;2023-03-23T07:36:40;8.10;;;3.40;;
68951;SDS011;56000;51.146;17.112;2023-03-23T07:39:13;7.50;;;3.20;;
68951;SDS011;56000;51.146;17.112;2023-03-23T07:41:45;6.80;;;3.30;;
68951;SDS011;56000;51.146;17.112;2023-03-23T07:44:22;7.50;;;3.60;;
68951;SDS011;56000;51.146;17.112;2023-03-23T07:46:54;8.00;;;3.60;;
68951;SDS011;56000;51.146;17.112;2023-03-23T07:49:35;8.70;;;4.20;;
68951;SDS011;56000;51.146;17.112;2023-03-23T07:52:21;7.60;;;3.60;;
68951;SDS011;56000;51.146;17.112;2023-03-23T07:54:53;6.50;;;3.60;;
68951;SDS011;56000;51.146;17.112;2023-03-23T07:57:54;7.50;;;3.60;;
68951;SDS011;56000;51.146;17.112;2023-03-23T08:00:26;10.60;;;3.70;;
68951;SDS011;56000;51.146;17.112;2023-03-23T08:03:05;8.90;;;3.50;;
68951;SDS011;56000;51.146;17.112;2023-03-23T08:06:10;10.90;;;4.40;;
68951;SDS011;56000;51.146;17.112;2023-03-23T08:08:53;10.90;;;3.70;;
68951;SDS011;56000;51.146;17.112;2023-03-23T08:11:45;7.20;;;3.80;;
68951;SDS011;56000;51.146;17.112;2023-03-23T08:17:30;6.20;;;3.10;;
68951;SDS011;56000;51.146;17.112;2023-03-23T08:20:22;10.30;;;4.00;;
68951;SDS011;56000;51.146;17.112;2023-03-23T08:23:03;11.50;;;4.00;;
68951;SDS011;56000;51.146;17.112;2023-03-23T08:25:40;10.20;;;4.70;;
68951;SDS011;56000;51.146;17.112;2023-03-23T08:28:26;7.40;;;3.40;;
68951;SDS011;56000;51.146;17.112;2023-03-23T08:31:37;8.20;;;4.10;;
68951;SDS011;56000;51.146;17.112;2023-03-23T08:34:19;7.00;;;3.50;;
68951;SDS011;56000;51.146;17.112;2023-03-23T08:37:14;11.00;;;3.90;;
68951;SDS011;56000;51.146;17.112;2023-03-23T08:40:06;6.90;;;3.70;;
68951;SDS011;56000;51.146;17.112;2023-03-23T08:43:15;6.60;;;3.90;;
68951;SDS011;56000;51.146;17.112;2023-03-23T08:46:06;7.30;;;4.10;;
68951;SDS011;56000;51.146;17.112;2023-03-23T08:49:05;6.70;;;3.80;;
68951;SDS011;56000;51.146;17.112;2023-03-23T08:52:00;10.60;;;3.90;;
68951;SDS011;56000;51.146;17.112;2023-03-23T08:54:53;9.50;;;3.70;;
68951;SDS011;56000;51.146;17.112;2023-03-23T08:57:26;5.90;;;2.30;;
68951;SDS011;56000;51.146;17.112;2023-03-23T09:00:18;7.70;;;2.70;;
68951;SDS011;56000;51.146;17.112;2023-03-23T09:03:06;6.60;;;2.50;;
68951;SDS011;56000;51.146;17.112;2023-03-23T09:06:02;5.30;;;2.30;;
68951;SDS011;56000;51.146;17.112;2023-03-23T09:08:40;6.60;;;3.30;;
68951;SDS011;56000;51.146;17.112;2023-03-23T09:11:13;4.70;;;2.70;;
68951;SDS011;56000;51.146;17.112;2023-03-23T09:13:45;4.20;;;2.60;;
68951;SDS011;56000;51.146;17.112;2023-03-23T09:16:17;6.10;;;3.00;;
68951;SDS011;56000;51.146;17.112;2023-03-23T09:18:49;5.60;;;2.50;;
68951;SDS011;56000;51.146;17.112;2023-03-23T09:21:21;8.90;;;2.80;;
68951;SDS011;56000;51.146;17.112;2023-03-23T09:23:53;8.50;;;2.50;;
68951;SDS011;56000;51.146;17.112;2023-03-23T09:26:27;4.80;;;2.80;;
68951;SDS011;56000;51.146;17.112;2023-03-23T09:28:59;3.60;;;2.60;;
68951;SDS011;56000;51.146;17.112;2023-03-23T09:45:01;5.30;;;2.70;;
68951;SDS011;56000;51.146;17.112;2023-03-23T09:47:43;4.90;;;2.90;;
68951;SDS011;56000;51.146;17.112;2023-03-23T09:50:24;3.30;;;2.20;;
68951;SDS011;56000;51.146;17.112;2023-03-23T09:53:03;11.00;;;2.90;;
68951;SDS011;56000;51.146;17.112;2023-03-23T09:55:40;7.90;;;2.90;;
68951;SDS011;56000;51.146;17.112;2023-03-23T09:58:17;5.80;;;2.60;;
68951;SDS011;56000;51.146;17.112;2023-03-23T10:00:57;5.60;;;2.90;;
68951;SDS011;56000;51.146;17.112;2023-03-23T10:03:36;8.00;;;3.10;;
68951;SDS011;56000;51.146;17.112;2023-03-23T10:06:13;4.60;;;2.30;;
68951;SDS011;56000;51.146;17.112;2023-03-23T10:08:50;10.90;;;2.60;;
68951;SDS011;56000;51.146;17.112;2023-03-23T10:11:31;7.60;;;2.10;;
68951;SDS011;56000;51.146;17.112;2023-03-23T10:14:17;4.70;;;2.00;;
68951;SDS011;56000;51.146;17.112;2023-03-23T10:17:03;3.30;;;2.20;;
68951;SDS011;56000;51.146;17.112;2023-03-23T10:19:43;3.00;;;1.90;;
68951;SDS011;56000;51.146;17.112;2023-03-23T10:22:25;5.10;;;2.10;;
68951;SDS011;56000;51.146;17.112;2023-03-23T10:25:06;2.70;;;1.90;;
68951;SDS011;56000;51.146;17.112;2023-03-23T10:27:49;3.80;;;1.80;;
68951;SDS011;56000;51.146;17.112;2023-03-23T10:30:29;3.40;;;1.90;;
68951;SDS011;56000;51.146;17.112;2023-03-23T10:33:08;3.60;;;1.70;;
68951;SDS011;56000;51.146;17.112;2023-03-23T10:35:45;1.60;;;1.50;;
68951;SDS011;56000;51.146;17.112;2023-03-23T10:38:24;7.60;;;1.80;;
68951;SDS011;56000;51.146;17.112;2023-03-23T10:41:11;4.90;;;1.80;;
68951;SDS011;56000;51.146;17.112;2023-03-23T10:43:46;2.00;;;1.50;;
68951;SDS011;56000;51.146;17.112;2023-03-23T10:46:29;2.60;;;1.60;;
68951;SDS011;56000;51.146;17.112;2023-03-23T10:49:18;2.80;;;1.40;;
68951;SDS011;56000;51.146;17.112;2023-03-23T10:51:57;2.80;;;1.60;;
68951;SDS011;56000;51.146;17.112;2023-03-23T10:54:37;5.30;;;1.90;;
68951;SDS011;56000;51.146;17.112;2023-03-23T10:57:22;4.10;;;1.60;;
68951;SDS011;56000;51.146;17.112;2023-03-23T11:00:02;5.80;;;1.60;;
68951;SDS011;56000;51.146;17.112;2023-03-23T11:05:18;4.10;;;2.20;;
68951;SDS011;56000;51.146;17.112;2023-03-23T11:07:56;2.50;;;1.80;;
68951;SDS011;56000;51.146;17.112;2023-03-23T11:10:36;1.70;;;1.40;;
68951;SDS011;56000;51.146;17.112;2023-03-23T11:13:14;5.30;;;1.70;;
68951;SDS011;56000;51.146;17.112;2023-03-23T11:15:48;2.70;;;1.60;;
68951;SDS011;56000;51.146;17.112;2023-03-23T11:18:22;3.80;;;1.70;;
68951;SDS011;56000;51.146;17.112;2023-03-23T11:20:57;2.60;;;1.50;;
68951;SDS011;56000;51.146;17.112;2023-03-23T11:23:32;1.80;;;1.40;;
68951;SDS011;56000;51.146;17.112;2023-03-23T11:26:13;2.60;;;1.50;;
68951;SDS011;56000;51.146;17.112;2023-03-23T11:28:51;2.80;;;1.30;;
68951;SDS011;56000;51.146;17.112;2023-03-23T11:31:29;6.30;;;1.60;;
68951;SDS011;56000;51.146;17.112;2023-03-23T11:34:05;1.80;;;1.20;;
68951;SDS011;56000;51.146;17.112;2023-03-23T11:36:49;2.60;;;1.50;;
68951;SDS011;56000;51.146;17.112;2023-03-23T11:39:25;2.60;;;1.30;;
68951;SDS011;56000;51.146;17.112;2023-03-23T11:42:00;2.30;;;1.50;;
68951;SDS011;56000;51.146;17.112;2023-03-23T11:44:47;5.20;;;1.60;;
68951;SDS011;56000;51.146;17.112;2023-03-23T11:47:23;1.50;;;1.30;;
68951;SDS011;56000;51.146;17.112;2023-03-23T11:50:12;3.00;;;1.70;;
68951;SDS011;56000;51.146;17.112;2023-03-23T11:52:51;2.90;;;1.60;;
68951;SDS011;56000;51.146;17.112;2023-03-23T11:55:30;4.40;;;1.60;;
68951;SDS011;56000;51.146;17.112;2023-03-23T11:58:12;3.40;;;1.70;;
68951;SDS011;56000;51.146;17.112;2023-03-23T12:00:48;4.10;;;1.70;;
68951;SDS011;56000;51.146;17.112;2023-03-23T12:03:25;2.90;;;1.60;;
68951;SDS011;56000;51.146;17.112;2023-03-23T12:06:10;4.30;;;1.70;;
68951;SDS011;56000;51.146;17.112;2023-03-23T12:08:51;3.60;;;2.10;;
68951;SDS011;56000;51.146;17.112;2023-03-23T12:11:40;10.30;;;1.80;;
68951;SDS011;56000;51.146;17.112;2023-03-23T12:14:24;2.70;;;1.70;;
68951;SDS011;56000;51.146;17.112;2023-03-23T12:17:13;5.10;;;1.80;;
68951;SDS011;56000;51.146;17.112;2023-03-23T12:19:58;2.10;;;1.60;;
68951;SDS011;56000;51.146;17.112;2023-03-23T12:22:49;3.20;;;1.60;;
68951;SDS011;56000;51.146;17.112;2023-03-23T12:26:07;3.10;;;1.90;;
68951;SDS011;56000;51.146;17.112;2023-03-23T12:29:14;2.70;;;1.70;;
68951;SDS011;56000;51.146;17.112;2023-03-23T12:32:07;3.20;;;1.80;;
68951;SDS011;56000;51.146;17.112;2023-03-23T12:34:54;2.10;;;1.80;;
68951;SDS011;56000;51.146;17.112;2023-03-23T12:37:42;2.30;;;1.40;;
68951;SDS011;56000;51.146;17.112;2023-03-23T12:40:35;3.40;;;1.70;;
68951;SDS011;56000;51.146;17.112;2023-03-23T12:43:18;4.50;;;1.90;;
68951;SDS011;56000;51.146;17.112;2023-03-23T12:46:17;6.10;;;2.30;;
68951;SDS011;56000;51.146;17.112;2023-03-23T12:48:59;4.30;;;1.70;;
68951;SDS011;56000;51.146;17.112;2023-03-23T12:51:37;4.00;;;1.90;;
68951;SDS011;56000;51.146;17.112;2023-03-23T12:54:15;3.60;;;2.30;;
68951;SDS011;56000;51.146;17.112;2023-03-23T12:56:56;2.20;;;1.70;;
68951;SDS011;56000;51.146;17.112;2023-03-23T12:59:35;3.70;;;1.60;;
68951;SDS011;56000;51.146;17.112;2023-03-23T13:02:15;3.90;;;1.80;;
68951;SDS011;56000;51.146;17.112;2023-03-23T13:04:55;3.30;;;1.80;;
68951;SDS011;56000;51.146;17.112;2023-03-23T13:12:49;2.40;;;1.60;;
68951;SDS011;56000;51.146;17.112;2023-03-23T13:15:29;5.70;;;1.90;;
68951;SDS011;56000;51.146;17.112;2023-03-23T13:18:16;3.80;;;1.60;;
68951;SDS011;56000;51.146;17.112;2023-03-23T13:20:59;4.70;;;2.00;;
68951;SDS011;56000;51.146;17.112;2023-03-23T13:23:38;3.30;;;1.80;;
68951;SDS011;56000;51.146;17.112;2023-03-23T13:26:12;5.50;;;2.20;;
68951;SDS011;56000;51.146;17.112;2023-03-23T13:28:56;3.10;;;1.80;;
68951;SDS011;56000;51.146;17.112;2023-03-23T13:31:31;2.90;;;2.40;;
68951;SDS011;56000;51.146;17.112;2023-03-23T13:34:15;4.70;;;2.10;;
68951;SDS011;56000;51.146;17.112;2023-03-23T13:36:55;5.30;;;2.50;;
68951;SDS011;56000;51.146;17.112;2023-03-23T13:39:30;3.60;;;2.00;;
68951;SDS011;56000;51.146;17.112;2023-03-23T13:42:18;2.90;;;2.10;;
68951;SDS011;56000;51.146;17.112;2023-03-23T13:45:06;6.60;;;2.60;;
68951;SDS011;56000;51.146;17.112;2023-03-23T13:47:50;10.70;;;2.20;;
68951;SDS011;56000;51.146;17.112;2023-03-23T13:50:48;4.80;;;2.30;;
68951;SDS011;56000;51.146;17.112;2023-03-23T13:53:28;7.90;;;2.20;;
68951;SDS011;56000;51.146;17.112;2023-03-23T13:56:18;5.30;;;2.50;;
68951;SDS011;56000;51.146;17.112;2023-03-23T13:59:06;5.10;;;2.40;;
68951;SDS011;56000;51.146;17.112;2023-03-23T14:01:43;4.20;;;2.00;;
68951;SDS011;56000;51.146;17.112;2023-03-23T14:04:16;4.30;;;1.90;;
68951;SDS011;56000;51.146;17.112;2023-03-23T14:06:50;3.40;;;2.10;;
68951;SDS011;56000;51.146;17.112;2023-03-23T14:09:33;2.50;;;1.80;;
68951;SDS011;56000;51.146;17.112;2023-03-23T14:12:16;3.50;;;2.20;;
68951;SDS011;56000;51.146;17.112;2023-03-23T14:14:51;7.80;;;2.40;;
68951;SDS011;56000;51.146;17.112;2023-03-23T14:20:04;4.10;;;2.10;;
68951;SDS011;56000;51.146;17.112;2023-03-23T14:22:46;4.40;;;2.20;;
68951;SDS011;56000;51.146;17.112;2023-03-23T14:25:26;5.50;;;2.00;;
68951;SDS011;56000;51.146;17.112;2023-03-23T14:28:00;5.80;;;2.30;;
68951;SDS011;56000;51.146;17.112;2023-03-23T14:30:37;4.00;;;2.20;;
68951;SDS011;56000;51.146;17.112;2023-03-23T14:33:11;4.90;;;2.10;;
68951;SDS011;56000;51.146;17.112;2023-03-23T14:35:44;6.90;;;2.40;;
68951;SDS011;56000;51.146;17.112;2023-03-23T14:38:20;2.80;;;1.90;;
68951;SDS011;56000;51.146;17.112;2023-03-23T14:41:00;3.20;;;2.20;;
68951;SDS011;56000;51.146;17.112;2023-03-23T14:43:35;4.10;;;2.20;;
68951;SDS011;56000;51.146;17.112;2023-03-23T14:46:09;3.70;;;2.00;;
68951;SDS011;56000;51.146;17.112;2023-03-23T14:48:42;6.90;;;2.40;;
68951;SDS011;56000;51.146;17.112;2023-03-23T14:51:19;5.30;;;2.40;;
68951;SDS011;56000;51.146;17.112;2023-03-23T14:53:51;4.40;;;2.30;;
68951;SDS011;56000;51.146;17.112;2023-03-23T14:56:24;5.50;;;2.20;;
68951;SDS011;56000;51.146;17.112;2023-03-23T14:59:06;5.80;;;2.40;;
68951;SDS011;56000;51.146;17.112;2023-03-23T15:01:40;5.00;;;2.30;;
68951;SDS011;56000;51.146;17.112;2023-03-23T15:04:15;4.90;;;2.40;;
68951;SDS011;56000;51.146;17.112;2023-03-23T15:06:50;4.90;;;2.10;;
68951;SDS011;56000;51.146;17.112;2023-03-23T15:09:26;5.70;;;2.10;;
68951;SDS011;56000;51.146;17.112;2023-03-23T15:11:59;4.00;;;2.30;;
68951;SDS011;56000;51.146;17.112;2023-03-23T15:14:36;6.30;;;2.40;;
68951;SDS011;56000;51.146;17.112;2023-03-23T15:17:20;3.90;;;2.20;;
68951;SDS011;56000;51.146;17.112;2023-03-23T15:19:54;7.20;;;2.40;;
68951;SDS011;56000;51.146;17.112;2023-03-23T15:22:28;6.40;;;2.30;;
68951;SDS011;56000;51.146;17.112;2023-03-23T15:25:09;5.30;;;2.60;;
68951;SDS011;56000;51.146;17.112;2023-03-23T15:27:44;6.40;;;2.50;;
68951;SDS011;56000;51.146;17.112;2023-03-23T15:30:34;6.90;;;2.60;;
68951;SDS011;56000;51.146;17.112;2023-03-23T15:33:15;6.10;;;2.80;;
68951;SDS011;56000;51.146;17.112;2023-03-23T15:35:49;4.20;;;2.80;;
68951;SDS011;56000;51.146;17.112;2023-03-23T15:38:23;5.00;;;2.60;;
68951;SDS011;56000;51.146;17.112;2023-03-23T15:40:59;7.30;;;3.40;;
68951;SDS011;56000;51.146;17.112;2023-03-23T15:43:34;7.00;;;3.10;;
68951;SDS011;56000;51.146;17.112;2023-03-23T15:46:23;8.40;;;3.40;;
68951;SDS011;56000;51.146;17.112;2023-03-23T15:49:08;7.20;;;2.60;;
68951;SDS011;56000;51.146;17.112;2023-03-23T15:51:44;11.00;;;5.00;;
68951;SDS011;56000;51.146;17.112;2023-03-23T15:54:17;10.60;;;3.80;;
68951;SDS011;56000;51.146;17.112;2023-03-23T15:56:48;9.70;;;3.80;;
68951;SDS011;56000;51.146;17.112;2023-03-23T15:59:20;6.50;;;2.60;;
68951;SDS011;56000;51.146;17.112;2023-03-23T16:01:54;6.90;;;3.50;;
68951;SDS011;56000;51.146;17.112;2023-03-23T16:04:28;12.40;;;5.80;;